Island Lake Airport
CYIV : rendu visible

Aérodrome :











RETROUVEZ-NOUS SUR...

 
LOGIN :

S'inscrire | Disclaimer

   EN    FR    IT 

 









Légende :    VFR   VFR Marginal   IFR   IFR Intensif   IFR Très Intensif
Visi : 
Plafond : 
>= 8 km
>= 3000ft
5 à 8 km
1000 à 3000 ft
1500m à 5 km
500 à 1000 ft
800 à 1500m
200 à 500 ft
< 800m
< 200 ft
Symboles :   Orages  Brouillard  Fortes neiges  Fortes précipitations  Vent > 20 kt






- Altitude de l'aérodrome : 770 ft
- Code IATA : YIV


CYIV - Island Lake

DERNIER METAR :
  • 192100Z 26006KT 15SM FEW020 M14/M25 A3047 RMK SC1 SC TR SLP349

METARs EXPIRÉS :
  • 192000Z 27008KT 15SM SKC M16/M25 A3047 RMK SLP353
  • 191900Z 27007KT 15SM SKC M17/M27 A3048 RMK SLP356

TAF TAF CYIV
Valide du 19 à 19h jusqu'au 20 à 07h UTC


191838Z 1919/2007 27008KT P6SM SKC
BECMG 1921/1923 23010KT RMK NXT FCST BY 200100Z



MET'MAP, la Météo Aéronautique d'un coup d'oeil ! - Copyright ORBIFLY Décembre 2007 - Disclaimer

ORBIFLY MET'MAP TEAM :

Programmation & Développement : Alexandra Zaïnal
Sur une idée originale de : Baudouin d'Aumeries
Assistance à la programmation : Marc-Olivier Méhu
Soutien technique & logistique : Manuel Goepfert

Contact : metmap@orbifly.com




SOURCES & CREDITS :

   NOAA       Earth
Advisory